Time;durP1;ratioP1;P1;durP2;ratioP2;P2;SDS_P1;SDS_P2;PMS_P1;PMS_P2;Temp;Humidity;BMP_temperature;BMP_pressure;BME280_temperature;BME280_humidity;BME280_pressure;Samples;Min_cycle;Max_cycle;Signal;HPM_P1;HPM_P2
2022/03/21 00:00:57;;;;;;;17.48;9.18;;;6.30;55.00;;;;;;5001701;28;20038;-75
2022/03/21 00:03:24;;;;;;;12.52;7.97;;;6.20;55.20;;;;;;4949030;28;20046;-76
2022/03/21 00:05:50;;;;;;;14.27;8.60;;;6.20;55.10;;;;;;4972252;28;20394;-75
2022/03/21 00:08:17;;;;;;;15.63;8.93;;;6.10;55.20;;;;;;4963647;28;20041;-76
2022/03/21 00:10:43;;;;;;;15.55;9.35;;;6.10;55.40;;;;;;4960593;28;20038;-75
2022/03/21 00:13:09;;;;;;;17.92;10.20;;;6.10;55.50;;;;;;4980995;28;20446;-75
2022/03/21 00:15:36;;;;;;;15.77;9.30;;;6.00;55.50;;;;;;4957135;28;20099;-75
2022/03/21 00:18:04;;;;;;;14.70;9.02;;;6.00;55.60;;;;;;4985876;28;20042;-76
2022/03/21 00:20:30;;;;;;;17.42;9.70;;;6.00;55.70;;;;;;4969808;28;20049;-76
2022/03/21 00:22:56;;;;;;;15.07;8.52;;;5.90;55.70;;;;;;4982148;28;20129;-77
2022/03/21 00:25:22;;;;;;;12.98;8.95;;;5.90;55.80;;;;;;4966219;28;20120;-76
2022/03/21 00:27:47;;;;;;;14.45;9.20;;;5.80;55.80;;;;;;4958852;28;20039;-76
2022/03/21 00:30:13;;;;;;;14.90;9.48;;;5.80;55.90;;;;;;4995731;28;20499;-76
2022/03/21 00:32:38;;;;;;;15.27;9.68;;;5.80;56.10;;;;;;4976613;28;20582;-76
2022/03/21 00:35:09;;;;;;;15.90;9.75;;;5.70;56.00;;;;;;4983768;28;20557;-76
2022/03/21 00:37:35;;;;;;;17.40;9.23;;;5.70;56.10;;;;;;4985895;28;20038;-76
2022/03/21 00:40:02;;;;;;;16.45;8.98;;;5.60;56.00;;;;;;4980728;28;20034;-75
2022/03/21 00:42:27;;;;;;;17.73;10.23;;;5.60;56.20;;;;;;4995938;28;20038;-76
2022/03/21 00:44:56;;;;;;;17.63;9.73;;;5.60;56.20;;;;;;4974434;28;20034;-76
2022/03/21 00:47:22;;;;;;;14.43;8.73;;;5.50;56.20;;;;;;4963311;28;20046;-76
2022/03/21 00:49:48;;;;;;;15.88;9.85;;;5.50;56.30;;;;;;4995921;28;20535;-76
2022/03/21 00:52:14;;;;;;;16.17;9.88;;;5.40;56.40;;;;;;4960077;28;20034;-75
2022/03/21 00:54:39;;;;;;;17.38;9.52;;;5.40;56.40;;;;;;4983739;28;20039;-76
2022/03/21 00:57:05;;;;;;;15.40;8.95;;;5.30;56.50;;;;;;4965264;28;20113;-75
2022/03/21 00:59:31;;;;;;;15.52;9.27;;;5.30;56.60;;;;;;5002678;28;20110;-76
2022/03/21 01:01:56;;;;;;;15.70;9.85;;;5.30;56.60;;;;;;4989111;28;20043;-76
2022/03/21 01:04:22;;;;;;;14.60;10.02;;;5.20;56.70;;;;;;4982185;28;20685;-76
2022/03/21 01:06:47;;;;;;;18.08;9.25;;;5.20;56.70;;;;;;4982538;28;20071;-76
2022/03/21 01:09:16;;;;;;;17.67;10.18;;;5.20;56.80;;;;;;5010944;28;20055;-76
2022/03/21 01:11:43;;;;;;;17.75;9.88;;;5.10;56.80;;;;;;4986902;28;20578;-76
2022/03/21 01:14:10;;;;;;;16.42;10.27;;;5.10;56.90;;;;;;4986681;28;20042;-76
2022/03/21 01:16:35;;;;;;;16.50;9.68;;;5.10;56.90;;;;;;4996389;28;20031;-75
2022/03/21 01:19:01;;;;;;;15.80;10.15;;;5.00;57.00;;;;;;4961434;28;20518;-76
2022/03/21 01:21:29;;;;;;;14.88;9.10;;;5.00;57.10;;;;;;4985275;28;20080;-76
2022/03/21 01:23:54;;;;;;;16.92;10.35;;;4.90;57.10;;;;;;4975522;28;20124;-78
2022/03/21 01:26:20;;;;;;;15.23;10.25;;;4.90;57.10;;;;;;4988295;28;20156;-76
2022/03/21 01:28:45;;;;;;;16.90;10.02;;;4.80;57.10;;;;;;5000917;28;20047;-76
2022/03/21 01:31:11;;;;;;;16.63;10.07;;;4.80;57.20;;;;;;4970258;28;20042;-75
2022/03/21 01:33:38;;;;;;;19.08;10.90;;;4.80;57.30;;;;;;5001587;28;20038;-76
2022/03/21 01:36:04;;;;;;;19.00;10.90;;;4.80;57.30;;;;;;4986235;28;20816;-76
2022/03/21 01:38:29;;;;;;;17.85;10.23;;;4.70;57.40;;;;;;4971821;28;20545;-75
2022/03/21 01:40:55;;;;;;;16.92;10.45;;;4.70;57.40;;;;;;5002586;28;20058;-76
2022/03/21 01:43:21;;;;;;;17.38;10.15;;;4.70;57.50;;;;;;5000024;28;20112;-76
2022/03/21 01:45:46;;;;;;;18.02;10.68;;;4.60;57.50;;;;;;4974627;28;20045;-76
2022/03/21 01:48:12;;;;;;;17.55;10.32;;;4.60;57.60;;;;;;4986641;28;20042;-76
2022/03/21 01:50:37;;;;;;;16.52;9.82;;;4.60;57.50;;;;;;4977827;28;20030;-76
2022/03/21 01:55:56;;;;;;;19.15;10.30;;;4.50;57.60;;;;;;4967383;28;20407;-75
2022/03/21 01:58:21;;;;;;;18.13;10.25;;;4.40;57.50;;;;;;4981696;28;20061;-77
2022/03/21 02:00:47;;;;;;;16.92;10.00;;;4.40;57.60;;;;;;4998940;28;20057;-76
2022/03/21 02:03:14;;;;;;;19.35;10.45;;;4.40;57.80;;;;;;4975630;28;20640;-76
2022/03/21 02:05:39;;;;;;;14.45;9.25;;;4.30;57.80;;;;;;4974434;28;20065;-76
2022/03/21 02:08:05;;;;;;;17.40;10.13;;;4.30;57.90;;;;;;4965648;28;20116;-77
2022/03/21 02:10:30;;;;;;;18.55;10.20;;;4.30;58.00;;;;;;4982944;28;20038;-76
2022/03/21 02:12:56;;;;;;;15.50;10.23;;;4.20;58.00;;;;;;4992436;28;20177;-76
2022/03/21 02:15:22;;;;;;;18.65;9.65;;;4.20;58.10;;;;;;4976227;28;20066;-76
2022/03/21 02:17:47;;;;;;;18.67;10.60;;;4.20;58.10;;;;;;4965570;28;20043;-76
2022/03/21 02:20:19;;;;;;;17.90;10.02;;;4.10;58.10;;;;;;4974531;28;20034;-77
2022/03/21 02:22:53;;;;;;;15.73;9.85;;;4.10;58.20;;;;;;4977881;28;20117;-76
2022/03/21 02:25:32;;;;;;;20.17;9.95;;;4.00;58.20;;;;;;5004126;28;20581;-76
2022/03/21 02:28:03;;;;;;;15.00;9.98;;;4.00;58.40;;;;;;4981642;28;20046;-76
2022/03/21 02:30:31;;;;;;;20.33;9.82;;;4.00;58.30;;;;;;4999315;28;20033;-77
2022/03/21 02:32:56;;;;;;;21.95;10.57;;;4.00;58.40;;;;;;4981671;28;20034;-76
2022/03/21 02:35:22;;;;;;;17.92;10.05;;;3.90;58.40;;;;;;4986516;28;20057;-75
2022/03/21 02:37:47;;;;;;;16.65;9.82;;;3.90;58.40;;;;;;5005863;28;20104;-76
2022/03/21 02:40:13;;;;;;;17.27;10.45;;;3.80;58.50;;;;;;4992934;28;20057;-76
2022/03/21 02:42:39;;;;;;;15.40;9.77;;;3.80;58.50;;;;;;4985487;28;20038;-76
2022/03/21 02:45:05;;;;;;;19.10;10.77;;;3.80;58.60;;;;;;4983927;28;20042;-76
2022/03/21 02:47:30;;;;;;;16.75;10.13;;;3.80;58.60;;;;;;4985636;28;20126;-77
2022/03/21 02:50:00;;;;;;;18.20;10.13;;;3.70;58.70;;;;;;4986924;28;20116;-77
2022/03/21 02:52:26;;;;;;;16.88;10.68;;;3.70;58.70;;;;;;4981193;28;20041;-76
2022/03/21 02:54:51;;;;;;;19.00;9.98;;;3.70;58.80;;;;;;4986475;28;20038;-76
2022/03/21 02:57:17;;;;;;;15.73;10.02;;;3.70;58.80;;;;;;4986148;28;20034;-77
2022/03/21 02:59:42;;;;;;;20.33;10.52;;;3.60;58.80;;;;;;4987188;28;20033;-76
2022/03/21 03:02:09;;;;;;;17.27;10.13;;;3.60;58.80;;;;;;5000785;28;20084;-76
2022/03/21 03:04:34;;;;;;;16.20;9.57;;;3.60;58.90;;;;;;4982442;28;20035;-76
2022/03/21 03:07:00;;;;;;;17.27;10.52;;;3.50;59.00;;;;;;4991689;28;20033;-77
2022/03/21 03:09:25;;;;;;;18.30;10.55;;;3.50;59.00;;;;;;4965333;28;20037;-76
2022/03/21 03:11:51;;;;;;;16.92;9.40;;;3.50;59.10;;;;;;4982908;28;20455;-76
2022/03/21 03:14:16;;;;;;;16.50;9.27;;;3.50;59.20;;;;;;4964999;28;20693;-76
2022/03/21 03:16:42;;;;;;;17.85;10.43;;;3.40;59.20;;;;;;4983581;28;20034;-76
2022/03/21 03:19:07;;;;;;;18.45;10.65;;;3.40;59.30;;;;;;4989443;28;20042;-76
2022/03/21 03:21:37;;;;;;;16.23;10.20;;;3.40;59.30;;;;;;5000875;28;20696;-76
2022/03/21 03:24:03;;;;;;;17.38;10.00;;;3.40;59.30;;;;;;4977324;28;20088;-76
2022/03/21 03:26:29;;;;;;;17.25;9.60;;;3.30;59.40;;;;;;4970522;28;20176;-76
2022/03/21 03:28:54;;;;;;;16.67;10.13;;;3.30;59.40;;;;;;4979873;28;20402;-76
2022/03/21 03:31:20;;;;;;;16.27;10.05;;;3.30;59.50;;;;;;4984358;28;20566;-76
2022/03/21 03:33:46;;;;;;;19.77;10.02;;;3.30;59.50;;;;;;4983110;28;20049;-76
2022/03/21 03:36:12;;;;;;;14.93;9.75;;;3.20;59.60;;;;;;4970552;28;20034;-77
2022/03/21 03:38:38;;;;;;;17.10;10.23;;;3.20;59.70;;;;;;4981071;28;20839;-77
2022/03/21 03:41:03;;;;;;;18.05;9.80;;;3.20;59.70;;;;;;4983518;28;20041;-77
2022/03/21 03:43:29;;;;;;;18.40;9.82;;;3.20;59.70;;;;;;4983463;28;20042;-76
2022/03/21 03:45:57;;;;;;;14.88;9.20;;;3.10;59.70;;;;;;4974226;28;20053;-76
2022/03/21 03:48:22;;;;;;;16.45;9.40;;;3.10;59.70;;;;;;4982289;28;20078;-77
2022/03/21 03:50:48;;;;;;;19.27;9.93;;;3.10;59.80;;;;;;4963206;28;20070;-76
2022/03/21 03:53:14;;;;;;;16.42;10.25;;;3.00;59.80;;;;;;4982891;28;20117;-78
2022/03/21 03:55:40;;;;;;;19.98;10.23;;;3.00;59.80;;;;;;4967512;28;20041;-76
2022/03/21 03:58:05;;;;;;;17.73;9.90;;;3.00;59.90;;;;;;4974298;28;20723;-76
2022/03/21 04:00:31;;;;;;;17.42;11.05;;;2.90;59.90;;;;;;4970494;28;20030;-77
2022/03/21 04:05:41;;;;;;;14.70;9.30;;;2.90;60.00;;;;;;4953610;28;20091;-76
2022/03/21 04:08:07;;;;;;;19.13;10.13;;;2.80;60.00;;;;;;4992847;28;20042;-76
2022/03/21 04:10:32;;;;;;;19.25;9.60;;;2.80;60.10;;;;;;4980513;28;20469;-77
2022/03/21 04:12:58;;;;;;;16.05;9.35;;;2.80;60.10;;;;;;4966275;28;20113;-77
2022/03/21 04:15:23;;;;;;;21.92;11.13;;;2.80;60.20;;;;;;4967343;28;20053;-76
2022/03/21 04:17:50;;;;;;;19.23;9.93;;;2.70;60.20;;;;;;4996269;28;20038;-76
2022/03/21 04:20:16;;;;;;;16.40;9.75;;;2.70;60.30;;;;;;4945060;28;20043;-76
2022/03/21 04:22:41;;;;;;;15.32;8.93;;;2.70;60.40;;;;;;4986344;28;20042;-76
2022/03/21 04:25:09;;;;;;;16.65;9.48;;;2.60;60.40;;;;;;4967026;28;20117;-77
2022/03/21 04:27:35;;;;;;;15.95;9.38;;;2.60;60.50;;;;;;4995031;28;20046;-77
2022/03/21 04:30:00;;;;;;;16.90;9.90;;;2.60;60.50;;;;;;4976981;28;20038;-76
2022/03/21 04:32:26;;;;;;;15.15;9.55;;;2.60;60.70;;;;;;4980712;28;20099;-77
2022/03/21 04:34:52;;;;;;;15.80;9.90;;;2.60;60.70;;;;;;4963794;28;20042;-77
2022/03/21 04:37:18;;;;;;;15.48;9.85;;;2.60;60.80;;;;;;4992850;28;20036;-77
2022/03/21 04:39:43;;;;;;;17.98;10.13;;;2.60;60.80;;;;;;5002609;28;20042;-77
2022/03/21 04:42:09;;;;;;;20.52;10.15;;;2.50;60.80;;;;;;5008955;28;20472;-77
2022/03/21 04:44:34;;;;;;;16.17;10.07;;;2.50;60.90;;;;;;4987840;28;20061;-79
2022/03/21 04:47:00;;;;;;;15.88;9.43;;;2.50;60.90;;;;;;4971872;28;20041;-77
2022/03/21 04:49:25;;;;;;;15.65;9.43;;;2.50;61.00;;;;;;4980999;28;20411;-76
2022/03/21 04:51:51;;;;;;;17.02;9.25;;;2.50;61.00;;;;;;4965718;28;20035;-77
2022/03/21 04:54:16;;;;;;;19.83;10.77;;;2.50;61.10;;;;;;4985637;28;20117;-77
2022/03/21 04:56:42;;;;;;;17.77;10.23;;;2.40;61.10;;;;;;5004138;28;20051;-76
2022/03/21 04:59:08;;;;;;;14.95;9.85;;;2.40;61.20;;;;;;4984083;28;20037;-78
2022/03/21 05:01:33;;;;;;;19.33;9.60;;;2.40;61.30;;;;;;4997536;28;20071;-76
2022/03/21 05:04:00;;;;;;;20.75;10.10;;;2.40;61.40;;;;;;4978529;28;20022;-77
2022/03/21 05:06:25;;;;;;;16.48;9.48;;;2.30;61.30;;;;;;4984871;28;20042;-77
2022/03/21 05:08:51;;;;;;;15.85;9.40;;;2.30;61.40;;;;;;4990749;28;20030;-77
2022/03/21 05:11:16;;;;;;;17.60;10.50;;;2.30;61.50;;;;;;5003131;28;23246;-77
2022/03/21 05:13:42;;;;;;;21.17;9.70;;;2.30;61.50;;;;;;4973375;28;20105;-76
2022/03/21 05:16:08;;;;;;;15.43;10.10;;;2.30;61.60;;;;;;4979114;28;20048;-76
2022/03/21 05:18:34;;;;;;;16.20;9.02;;;2.20;62.00;;;;;;4983737;28;20044;-77
2022/03/21 05:21:01;;;;;;;18.48;9.32;;;2.20;61.60;;;;;;4970719;28;20121;-76
2022/03/21 05:31:39;;;;;;;17.83;9.80;;;2.10;61.80;;;;;;4986268;28;20566;-76
2022/03/21 05:36:50;;;;;;;14.43;9.02;;;2.10;61.90;;;;;;4995362;28;20065;-76
2022/03/21 05:39:16;;;;;;;16.48;9.63;;;2.00;61.90;;;;;;4966681;28;20549;-76
2022/03/21 05:41:41;;;;;;;18.15;9.82;;;2.00;61.90;;;;;;4981024;28;20510;-77
2022/03/21 05:44:08;;;;;;;17.30;9.60;;;2.00;62.00;;;;;;4987083;28;20043;-77
2022/03/21 05:46:33;;;;;;;14.52;9.25;;;2.00;62.10;;;;;;4983227;28;20121;-76
2022/03/21 05:49:02;;;;;;;17.60;9.73;;;2.00;62.20;;;;;;4965021;28;20041;-77
2022/03/21 05:51:32;;;;;;;19.15;9.85;;;1.90;62.20;;;;;;5000726;28;20798;-76
2022/03/21 05:53:59;;;;;;;19.38;10.70;;;1.90;62.20;;;;;;4987688;28;20060;-76
2022/03/21 05:56:25;;;;;;;23.58;10.63;;;1.90;62.30;;;;;;4974026;28;20049;-76
2022/03/21 05:58:52;;;;;;;16.65;9.48;;;1.90;62.40;;;;;;4984162;28;20066;-76
2022/03/21 06:01:26;;;;;;;16.20;9.85;;;1.90;62.50;;;;;;4952984;28;20033;-76
2022/03/21 06:03:53;;;;;;;20.70;10.27;;;1.90;62.50;;;;;;4983631;28;20033;-77
2022/03/21 06:06:19;;;;;;;17.08;9.70;;;1.90;62.50;;;;;;5001435;28;20029;-77
2022/03/21 06:08:45;;;;;;;16.75;9.38;;;1.90;62.60;;;;;;4983086;28;20094;-76
2022/03/21 06:11:12;;;;;;;13.68;8.75;;;1.90;62.60;;;;;;4993449;28;20031;-77
2022/03/21 06:13:39;;;;;;;18.45;9.25;;;1.90;62.70;;;;;;4983751;28;20121;-78
2022/03/21 06:16:06;;;;;;;18.13;9.82;;;1.90;62.70;;;;;;5002857;28;20085;-76
2022/03/21 06:18:32;;;;;;;20.05;10.02;;;1.90;62.80;;;;;;5003761;28;20046;-77
2022/03/21 06:20:58;;;;;;;18.33;9.32;;;2.00;63.00;;;;;;4982197;28;20046;-79
2022/03/21 06:23:24;;;;;;;17.30;9.93;;;2.00;63.10;;;;;;4985654;28;20118;-77
2022/03/21 06:25:51;;;;;;;17.35;9.45;;;2.00;63.10;;;;;;4998340;28;20116;-78
2022/03/21 06:28:17;;;;;;;20.33;10.45;;;2.00;63.10;;;;;;4963377;28;20041;-77
2022/03/21 06:30:42;;;;;;;17.17;9.35;;;2.00;63.10;;;;;;4974704;28;20434;-76
2022/03/21 06:33:08;;;;;;;20.33;11.40;;;2.10;63.20;;;;;;4958702;28;20084;-76
2022/03/21 06:35:34;;;;;;;22.63;13.02;;;2.10;63.20;;;;;;4984786;28;20669;-76
2022/03/21 06:37:59;;;;;;;17.85;10.40;;;2.10;63.30;;;;;;4982564;28;20056;-76
2022/03/21 06:40:26;;;;;;;20.13;11.23;;;2.20;63.40;;;;;;4966989;28;20036;-76
2022/03/21 06:42:52;;;;;;;19.27;11.75;;;2.30;63.40;;;;;;4979116;28;20461;-77
2022/03/21 06:45:18;;;;;;;22.50;13.20;;;2.30;63.40;;;;;;4983776;28;20129;-76
2022/03/21 06:47:43;;;;;;;27.95;16.27;;;2.40;63.50;;;;;;5002790;28;20172;-76
2022/03/21 06:50:10;;;;;;;24.55;14.75;;;2.40;63.50;;;;;;5007423;28;20037;-75
2022/03/21 06:52:38;;;;;;;29.83;15.32;;;2.50;63.50;;;;;;4990608;28;20136;-76
2022/03/21 06:55:07;;;;;;;36.85;18.88;;;2.60;63.50;;;;;;4984510;28;20052;-76
2022/03/21 06:57:33;;;;;;;30.20;17.33;;;2.70;63.50;;;;;;4970944;28;20049;-78
2022/03/21 06:59:58;;;;;;;29.45;16.83;;;2.80;63.40;;;;;;4969738;28;20040;-75
2022/03/21 07:02:24;;;;;;;27.88;15.60;;;2.90;63.40;;;;;;4974971;28;20035;-78
2022/03/21 07:04:49;;;;;;;30.40;14.45;;;2.90;63.30;;;;;;4967112;28;20506;-78
2022/03/21 07:07:15;;;;;;;22.13;12.90;;;3.00;63.20;;;;;;4984026;28;20621;-76
2022/03/21 07:09:40;;;;;;;20.67;11.35;;;3.20;63.30;;;;;;4963919;28;20060;-78
2022/03/21 07:12:06;;;;;;;20.08;10.55;;;3.30;63.20;;;;;;4969715;28;20038;-78
2022/03/21 07:14:32;;;;;;;21.35;11.93;;;3.40;63.00;;;;;;4961980;28;20121;-76
2022/03/21 07:16:58;;;;;;;17.63;10.45;;;3.50;62.80;;;;;;4981654;28;20092;-77
2022/03/21 07:19:24;;;;;;;20.52;9.85;;;3.70;62.70;;;;;;4993643;28;20090;-77
2022/03/21 07:21:49;;;;;;;18.90;10.27;;;3.80;62.50;;;;;;4996211;28;20555;-76
2022/03/21 07:24:15;;;;;;;18.95;10.45;;;3.90;62.40;;;;;;4996064;28;20045;-77
2022/03/21 07:26:40;;;;;;;21.35;10.80;;;4.10;62.30;;;;;;4965996;28;20541;-76
2022/03/21 07:29:06;;;;;;;19.88;10.77;;;4.20;62.20;;;;;;4981841;28;20030;-78
2022/03/21 07:31:33;;;;;;;18.02;9.95;;;4.40;62.00;;;;;;4974377;28;20126;-77
2022/03/21 07:33:58;;;;;;;21.05;10.82;;;4.50;61.80;;;;;;4992527;28;20061;-77
2022/03/21 07:36:24;;;;;;;21.48;10.48;;;4.60;61.60;;;;;;4982030;28;20057;-77
2022/03/21 07:38:49;;;;;;;18.33;10.40;;;4.80;61.50;;;;;;4981510;28;20080;-76
2022/03/21 07:41:15;;;;;;;15.93;9.35;;;4.90;61.40;;;;;;4981870;28;20061;-77
2022/03/21 07:43:40;;;;;;;18.52;10.32;;;5.10;61.20;;;;;;4998361;28;20428;-77
2022/03/21 07:48:51;;;;;;;16.67;10.65;;;5.30;60.70;;;;;;4991836;28;20614;-78
2022/03/21 07:51:17;;;;;;;19.73;10.70;;;5.50;60.60;;;;;;4978778;28;20049;-77
2022/03/21 07:53:42;;;;;;;16.00;9.38;;;5.60;60.40;;;;;;4981365;28;20037;-78
2022/03/21 07:56:08;;;;;;;18.38;9.82;;;5.80;60.30;;;;;;4994603;28;20034;-76
2022/03/21 07:58:35;;;;;;;16.02;9.85;;;5.90;60.00;;;;;;4985755;28;20499;-76
2022/03/21 08:01:01;;;;;;;19.10;9.95;;;6.10;59.80;;;;;;4965479;28;20030;-78
2022/03/21 08:03:27;;;;;;;15.25;8.93;;;6.30;59.70;;;;;;4964891;28;20400;-77
2022/03/21 08:05:53;;;;;;;18.02;10.48;;;6.50;59.60;;;;;;4959996;28;20042;-78
2022/03/21 08:08:20;;;;;;;17.92;10.15;;;6.60;59.30;;;;;;4981906;28;20112;-76
2022/03/21 08:10:46;;;;;;;16.08;9.48;;;6.70;59.10;;;;;;4960335;28;20052;-77
2022/03/21 08:13:13;;;;;;;15.63;9.00;;;6.90;58.90;;;;;;4987781;28;20103;-77
2022/03/21 08:15:39;;;;;;;16.15;9.60;;;7.10;58.80;;;;;;5004440;28;20026;-76
2022/03/21 08:18:05;;;;;;;14.32;8.57;;;7.20;58.50;;;;;;4980068;28;20036;-76
2022/03/21 08:20:35;;;;;;;14.75;8.63;;;7.40;58.30;;;;;;4997454;28;20100;-77
2022/03/21 08:23:05;;;;;;;12.98;8.45;;;7.60;58.20;;;;;;4951176;28;20168;-76
2022/03/21 08:25:31;;;;;;;15.20;8.80;;;7.80;57.90;;;;;;4962525;28;20031;-76
2022/03/21 08:27:57;;;;;;;13.85;9.02;;;7.90;57.60;;;;;;4951996;28;20044;-77
2022/03/21 08:30:22;;;;;;;14.20;9.02;;;8.10;57.40;;;;;;4995811;28;20042;-76
2022/03/21 08:32:48;;;;;;;14.50;8.65;;;8.30;57.30;;;;;;4995991;28;20041;-76
2022/03/21 08:35:15;;;;;;;14.35;8.95;;;8.40;57.00;;;;;;4958458;28;20170;-75
2022/03/21 08:37:40;;;;;;;17.05;9.80;;;8.60;56.80;;;;;;4966699;28;20050;-77
2022/03/21 08:40:07;;;;;;;14.43;8.77;;;8.80;56.60;;;;;;4983687;28;20037;-75
2022/03/21 08:42:32;;;;;;;18.60;9.13;;;9.00;56.30;;;;;;4997447;28;20035;-76
2022/03/21 08:44:58;;;;;;;14.95;9.43;;;9.20;56.20;;;;;;4983709;28;20042;-76
2022/03/21 08:47:26;;;;;;;17.38;9.27;;;9.40;55.90;;;;;;4974242;28;20464;-77
2022/03/21 08:49:52;;;;;;;14.80;9.25;;;9.50;55.50;;;;;;4980958;28;20042;-76
2022/03/21 08:52:19;;;;;;;24.63;10.52;;;9.70;55.30;;;;;;4948321;28;20026;-75
2022/03/21 08:54:45;;;;;;;14.52;9.07;;;9.90;55.00;;;;;;4966731;28;20035;-77
2022/03/21 08:57:11;;;;;;;18.23;9.38;;;10.10;54.90;;;;;;4997424;28;20041;-76
2022/03/21 08:59:36;;;;;;;13.50;8.85;;;10.30;54.60;;;;;;4992356;28;20142;-76
2022/03/21 09:02:03;;;;;;;12.85;8.43;;;10.50;54.30;;;;;;4980536;28;20029;-76
2022/03/21 09:04:29;;;;;;;16.80;8.50;;;10.70;54.00;;;;;;4944002;28;20036;-76
2022/03/21 09:06:54;;;;;;;13.57;8.75;;;10.80;53.70;;;;;;4992051;28;20027;-76
2022/03/21 09:09:20;;;;;;;15.38;8.98;;;11.00;53.50;;;;;;4966994;28;20066;-76
2022/03/21 09:11:46;;;;;;;14.80;9.18;;;11.20;53.30;;;;;;4938016;28;20050;-76
2022/03/21 09:14:12;;;;;;;14.57;9.02;;;11.30;53.00;;;;;;4982428;28;20042;-77
2022/03/21 09:16:39;;;;;;;13.38;8.63;;;11.50;52.80;;;;;;4996662;28;20115;-76
2022/03/21 09:19:07;;;;;;;13.38;8.45;;;11.70;52.30;;;;;;4936711;28;20481;-76
2022/03/21 09:21:32;;;;;;;15.77;9.00;;;11.90;52.10;;;;;;4979652;28;20088;-75
2022/03/21 09:23:58;;;;;;;14.13;9.30;;;12.10;51.80;;;;;;4965440;28;20038;-75
2022/03/21 09:26:24;;;;;;;13.45;9.18;;;12.20;51.60;;;;;;4974321;28;20096;-75
2022/03/21 09:28:49;;;;;;;19.95;9.45;;;12.40;51.20;;;;;;4956050;28;20042;-75
2022/03/21 09:31:16;;;;;;;15.02;8.80;;;12.60;51.00;;;;;;4961738;28;20509;-75
2022/03/21 09:33:41;;;;;;;13.32;8.82;;;12.70;50.80;;;;;;4981727;28;20447;-77
2022/03/21 09:36:08;;;;;;;13.65;8.85;;;12.90;50.60;;;;;;4971051;28;20489;-74
2022/03/21 09:38:34;;;;;;;11.70;8.05;;;13.10;50.30;;;;;;4949385;28;20090;-78
2022/03/21 09:41:01;;;;;;;13.20;8.85;;;13.30;50.10;;;;;;4965019;28;20076;-76
2022/03/21 09:43:28;;;;;;;14.18;9.52;;;13.50;50.00;;;;;;4955592;28;20030;-76
2022/03/21 09:45:56;;;;;;;12.52;9.05;;;13.70;49.60;;;;;;4966910;28;20152;-76
2022/03/21 09:48:22;;;;;;;18.33;9.18;;;13.90;49.20;;;;;;4993513;28;20045;-76
2022/03/21 09:50:50;;;;;;;13.55;8.90;;;14.00;48.90;;;;;;4977427;28;20065;-75
2022/03/21 09:53:16;;;;;;;13.23;8.55;;;14.20;48.70;;;;;;4970283;28;20125;-76
2022/03/21 09:55:42;;;;;;;14.13;8.38;;;14.40;48.50;;;;;;4997736;28;20683;-76
2022/03/21 09:58:11;;;;;;;11.80;8.55;;;14.60;48.30;;;;;;4967788;28;20039;-76
2022/03/21 10:00:38;;;;;;;16.08;9.07;;;14.80;48.10;;;;;;4997048;28;20120;-76
2022/03/21 10:03:04;;;;;;;12.52;8.82;;;15.00;47.60;;;;;;4998455;28;20035;-76
2022/03/21 10:05:41;;;;;;;16.00;9.10;;;15.20;47.40;;;;;;4986800;28;20033;-76
2022/03/21 10:08:24;;;;;;;18.55;9.57;;;15.30;46.70;;;;;;4989070;28;20042;-76
2022/03/21 10:10:51;;;;;;;13.43;8.68;;;15.60;46.30;;;;;;4977668;28;20033;-76
2022/03/21 10:13:17;;;;;;;12.13;8.88;;;15.70;46.60;;;;;;4981001;28;20037;-76
2022/03/21 10:15:43;;;;;;;12.98;8.70;;;15.90;46.30;;;;;;4960731;28;20057;-76
2022/03/21 10:18:09;;;;;;;11.68;8.40;;;16.00;46.10;;;;;;4981174;28;20070;-75
2022/03/21 10:20:35;;;;;;;13.20;8.27;;;16.20;45.90;;;;;;4987874;28;20099;-77
2022/03/21 10:23:21;;;;;;;18.20;9.88;;;16.30;45.60;;;;;;4986359;28;20057;-76
2022/03/21 10:25:47;;;;;;;14.65;8.18;;;16.50;44.50;;;;;;4973174;28;20133;-75
2022/03/21 10:28:32;;;;;;;11.68;8.60;;;16.60;45.00;;;;;;4984144;28;20160;-76
2022/03/21 10:30:58;;;;;;;12.50;8.20;;;16.80;44.00;;;;;;5009602;28;20043;-75
2022/03/21 10:33:24;;;;;;;13.02;8.52;;;16.90;44.60;;;;;;4978835;28;20042;-77
2022/03/21 10:35:49;;;;;;;12.02;9.02;;;17.10;44.20;;;;;;4967061;28;20501;-77
2022/03/21 10:38:27;;;;;;;11.32;8.25;;;17.20;43.90;;;;;;4996530;28;20038;-76
2022/03/21 10:40:53;;;;;;;15.30;8.75;;;17.40;43.60;;;;;;4987743;28;20038;-76
2022/03/21 10:43:19;;;;;;;11.68;8.45;;;17.50;43.30;;;;;;4967879;28;20037;-76
2022/03/21 10:45:49;;;;;;;13.57;8.27;;;17.70;43.10;;;;;;4965941;28;20153;-76
2022/03/21 10:48:15;;;;;;;13.05;9.00;;;17.80;42.70;;;;;;4965759;28;20494;-76
2022/03/21 10:50:43;;;;;;;12.95;8.98;;;18.00;42.70;;;;;;4990727;28;20049;-77
2022/03/21 10:53:21;;;;;;;10.05;8.05;;;18.10;42.40;;;;;;4952942;28;20414;-77
2022/03/21 10:56:10;;;;;;;12.73;9.10;;;18.30;41.50;;;;;;4973129;28;20684;-76
2022/03/21 10:58:35;;;;;;;13.10;8.38;;;18.50;42.00;;;;;;4975568;28;20061;-76
2022/03/21 11:01:18;;;;;;;11.75;8.60;;;18.70;41.70;;;;;;4986615;28;20033;-76
2022/03/21 11:03:56;;;;;;;12.98;9.57;;;18.80;40.70;;;;;;4987873;28;20042;-76
2022/03/21 11:06:22;;;;;;;14.55;9.07;;;18.90;40.20;;;;;;4972298;28;20042;-76
2022/03/21 11:08:50;;;;;;;10.00;8.13;;;18.80;40.70;;;;;;5019038;28;20610;-75
2022/03/21 11:11:15;;;;;;;11.43;8.18;;;18.90;40.50;;;;;;4988872;28;20042;-77
2022/03/21 11:13:41;;;;;;;11.77;8.63;;;19.00;40.40;;;;;;4962276;28;20034;-76
2022/03/21 11:16:07;;;;;;;11.48;8.15;;;19.20;40.30;;;;;;4976588;28;20038;-77
2022/03/21 11:18:32;;;;;;;12.27;8.57;;;19.40;40.20;;;;;;4998204;28;20081;-76
2022/03/21 11:20:59;;;;;;;13.23;9.18;;;19.60;39.90;;;;;;4963087;28;20061;-76
2022/03/21 11:23:27;;;;;;;15.57;9.15;;;19.70;39.70;;;;;;4972365;28;20048;-77
2022/03/21 11:26:08;;;;;;;12.13;9.00;;;19.90;39.50;;;;;;4979783;28;20038;-76
2022/03/21 11:29:16;;;;;;;13.53;8.53;;;20.10;39.20;;;;;;4958515;28;20068;-76
2022/03/21 11:32:07;;;;;;;11.52;8.30;;;20.30;38.00;;;;;;4977847;28;20041;-77
2022/03/21 11:34:51;;;;;;;13.23;8.27;;;20.50;38.30;;;;;;4975383;28;20045;-78
2022/03/21 11:37:26;;;;;;;11.88;8.70;;;20.70;38.60;;;;;;4978322;28;20287;-77
2022/03/21 11:40:23;;;;;;;12.15;8.85;;;20.90;37.90;;;;;;4995186;28;20038;-76
2022/03/21 11:42:49;;;;;;;12.40;8.82;;;21.10;36.90;;;;;;4965022;28;20099;-76
2022/03/21 11:45:40;;;;;;;11.80;8.75;;;21.20;38.40;;;;;;4978686;28;20042;-77
2022/03/21 11:48:18;;;;;;;;;;;21.40;36.30;;;;;;4959326;28;20656;-78
2022/03/21 11:50:50;;;;;;;12.70;8.68;;;21.50;37.40;;;;;;4988111;28;19972;-77
2022/03/21 11:53:17;;;;;;;10.45;7.90;;;21.60;37.10;;;;;;4981711;28;20730;-77
2022/03/21 11:55:44;;;;;;;12.48;8.45;;;21.70;36.90;;;;;;4976441;28;20052;-78
2022/03/21 11:58:21;;;;;;;11.68;8.52;;;21.80;36.80;;;;;;4975009;28;20096;-76
2022/03/21 12:01:16;;;;;;;11.13;8.75;;;21.80;35.20;;;;;;4978513;28;20173;-78
2022/03/21 12:03:43;;;;;;;12.98;7.93;;;21.90;34.80;;;;;;4967358;28;20168;-77
2022/03/21 12:06:30;;;;;;;11.70;8.07;;;21.90;35.90;;;;;;4979996;28;20038;-76
2022/03/21 12:08:59;;;;;;;9.13;7.72;;;22.00;34.90;;;;;;4996710;28;20550;-77
2022/03/21 12:11:48;;;;;;;10.13;7.80;;;22.20;35.50;;;;;;4966699;28;20049;-76
2022/03/21 12:14:25;;;;;;;11.43;8.82;;;22.30;34.70;;;;;;4981409;28;20074;-76
2022/03/21 12:17:05;;;;;;;10.63;7.28;;;22.50;34.50;;;;;;4997675;28;20768;-76
2022/03/21 12:22:30;;;;;;;12.70;8.13;;;22.60;33.60;;;;;;4976904;28;20039;-77
2022/03/21 12:25:05;;;;;;;11.77;8.68;;;22.60;33.20;;;;;;4997316;28;20038;-77
2022/03/21 12:27:40;;;;;;;9.63;7.40;;;22.50;34.20;;;;;;4984285;28;20642;-77
2022/03/21 12:30:24;;;;;;;11.63;8.27;;;22.60;34.10;;;;;;4965151;28;20038;-77
2022/03/21 12:32:50;;;;;;;9.50;7.30;;;22.50;33.20;;;;;;5002421;28;20042;-76
2022/03/21 12:35:45;;;;;;;10.82;8.18;;;22.40;34.00;;;;;;4974909;28;20481;-76
2022/03/21 12:38:21;;;;;;;12.43;8.35;;;22.40;33.00;;;;;;4983858;28;20042;-76
2022/03/21 12:40:47;;;;;;;11.63;7.63;;;22.40;33.70;;;;;;4954769;28;20054;-76
2022/03/21 12:43:15;;;;;;;11.68;8.93;;;22.40;33.90;;;;;;4981694;28;20411;-77
2022/03/21 12:45:44;;;;;;;9.93;7.63;;;22.40;34.00;;;;;;4981067;28;20145;-78
2022/03/21 12:48:10;;;;;;;9.13;7.43;;;22.40;33.70;;;;;;4958815;28;20698;-77
2022/03/21 12:50:36;;;;;;;9.95;7.25;;;22.50;33.60;;;;;;4964754;28;20038;-77
2022/03/21 12:53:09;;;;;;;12.93;7.68;;;22.50;33.50;;;;;;4988460;28;20038;-77
2022/03/21 12:55:35;;;;;;;11.43;7.38;;;22.50;33.20;;;;;;4965815;28;20038;-76
2022/03/21 12:58:02;;;;;;;12.63;7.95;;;22.40;33.20;;;;;;4947489;28;20065;-77
2022/03/21 13:00:34;;;;;;;10.70;7.43;;;22.40;32.90;;;;;;4955939;28;20042;-77
2022/03/21 13:03:12;;;;;;;9.98;7.53;;;22.40;32.90;;;;;;4993700;28;20046;-76
2022/03/21 13:11:20;;;;;;;10.20;7.70;;;22.60;32.70;;;;;;4994000;28;20060;-76